Time;durP1;ratioP1;P1;durP2;ratioP2;P2;SDS_P1;SDS_P2;PMS_P1;PMS_P2;Temp;Humidity;BMP_temperature;BMP_pressure;BME280_temperature;BME280_humidity;BME280_pressure;Samples;Min_cycle;Max_cycle;Signal;HPM_P1;HPM_P2
2022/05/22 00:00:36;;;;;;;27.88;4.88;;;;;;;;;;5016058;28;20136;-26
2022/05/22 00:03:03;;;;;;;15.27;7.20;;;;;;;;;;5013436;28;20042;-26
2022/05/22 00:05:30;;;;;;;16.58;6.13;;;;;;;;;;5013133;28;20111;-27
2022/05/22 00:07:56;;;;;;;17.17;8.20;;;;;;;;;;5013543;28;20449;-26
2022/05/22 00:10:22;;;;;;;10.85;6.93;;;;;;;;;;5015298;28;20061;-26
2022/05/22 00:12:48;;;;;;;12.52;4.70;;;;;;;;;;5014940;28;20129;-26
2022/05/22 00:15:18;;;;;;;7.78;4.07;;;;;;;;;;5017649;28;20045;-26
2022/05/22 00:17:44;;;;;;;4.65;2.47;;;;;;;;;;5014201;28;20132;-27
2022/05/22 00:20:12;;;;;;;7.22;3.38;;;;;;;;;;5014025;28;20049;-26
2022/05/22 00:22:38;;;;;;;3.40;2.00;;;;;;;;;;5014575;28;20082;-28
2022/05/22 00:25:05;;;;;;;13.30;3.65;;;;;;;;;;5013246;28;20065;-26
2022/05/22 00:27:32;;;;;;;8.15;3.50;;;;;;;;;;5014193;28;20048;-28
2022/05/22 00:30:00;;;;;;;12.75;4.90;;;;;;;;;;5020227;28;20053;-26
2022/05/22 00:32:26;;;;;;;8.63;4.13;;;;;;;;;;5015676;28;20061;-26
2022/05/22 00:34:52;;;;;;;9.95;4.32;;;;;;;;;;5012403;28;20037;-26
2022/05/22 00:37:19;;;;;;;4.55;1.95;;;;;;;;;;5014226;28;20081;-26
2022/05/22 00:39:45;;;;;;;5.60;1.10;;;;;;;;;;5012952;28;20485;-26
2022/05/22 00:42:18;;;;;;;1.20;0.90;;;;;;;;;;5013830;28;20558;-26
2022/05/22 00:44:45;;;;;;;0.65;0.50;;;;;;;;;;5014018;28;20038;-26
2022/05/22 00:47:11;;;;;;;2.35;0.50;;;;;;;;;;5014311;28;20133;-26
2022/05/22 00:49:41;;;;;;;0.63;0.40;;;;;;;;;;5013399;28;20494;-26
2022/05/22 00:52:28;;;;;;;4.25;1.52;;;;;;;;;;5013112;28;20046;-27
2022/05/22 00:54:59;;;;;;;12.38;5.47;;;;;;;;;;5012678;28;20042;-26
2022/05/22 00:57:32;;;;;;;14.77;6.28;;;;;;;;;;5022832;28;20489;-26
2022/05/22 00:59:59;;;;;;;;;;;;;;;;;;5027908;28;20076;-26
2022/05/22 01:02:25;;;;;;;17.98;8.38;;;;;;;;;;5013540;28;19936;-26
2022/05/22 01:04:52;;;;;;;21.98;8.93;;;;;;;;;;5020703;28;20060;-26
2022/05/22 01:07:19;;;;;;;22.65;8.77;;;;;;;;;;5013065;28;20403;-27
2022/05/22 01:09:45;;;;;;;20.65;9.75;;;;;;;;;;5013969;28;20056;-27
2022/05/22 01:12:15;;;;;;;29.67;12.07;;;;;;;;;;5013040;28;20050;-26
2022/05/22 01:14:42;;;;;;;34.10;12.75;;;;;;;;;;5016843;28;20041;-26
2022/05/22 01:17:17;;;;;;;37.80;15.40;;;;;;;;;;5013314;28;20545;-26
2022/05/22 01:19:56;;;;;;;39.92;12.18;;;;;;;;;;5014460;28;20038;-26
2022/05/22 01:22:22;;;;;;;22.40;10.32;;;;;;;;;;5013449;28;20049;-26
2022/05/22 01:24:48;;;;;;;21.00;10.93;;;;;;;;;;5013610;28;20573;-25
2022/05/22 01:27:18;;;;;;;18.10;9.45;;;;;;;;;;5013494;28;20052;-26
2022/05/22 01:29:44;;;;;;;21.67;10.10;;;;;;;;;;5011533;28;20398;-26
2022/05/22 01:32:10;;;;;;;19.88;11.18;;;;;;;;;;5014551;28;20108;-26
2022/05/22 01:34:36;;;;;;;17.65;9.68;;;;;;;;;;5013988;28;20042;-25
2022/05/22 01:37:05;;;;;;;17.95;9.57;;;;;;;;;;5012641;28;20402;-27
2022/05/22 01:39:31;;;;;;;23.27;12.07;;;;;;;;;;5013200;28;20064;-26
2022/05/22 01:41:57;;;;;;;28.10;14.50;;;;;;;;;;5011588;28;20050;-26
2022/05/22 01:44:23;;;;;;;22.83;13.50;;;;;;;;;;5012495;28;20042;-26
2022/05/22 01:46:49;;;;;;;33.63;14.38;;;;;;;;;;5030366;28;20041;-26
2022/05/22 01:49:15;;;;;;;36.47;15.50;;;;;;;;;;5033288;28;20092;-26
2022/05/22 01:51:42;;;;;;;32.72;15.15;;;;;;;;;;5025642;28;20103;-26
2022/05/22 01:54:09;;;;;;;36.80;13.32;;;;;;;;;;5016401;28;20073;-26
2022/05/22 01:56:36;;;;;;;93.05;17.15;;;;;;;;;;5020035;28;20045;-26
2022/05/22 01:59:03;;;;;;;96.63;13.13;;;;;;;;;;5013383;28;20054;-26
2022/05/22 02:01:29;;;;;;;88.78;15.95;;;;;;;;;;5010772;28;20065;-26
2022/05/22 02:03:55;;;;;;;63.13;11.02;;;;;;;;;;5017089;28;20046;-26
2022/05/22 02:06:21;;;;;;;40.45;10.10;;;;;;;;;;5012053;28;20444;-33
2022/05/22 02:08:48;;;;;;;13.15;8.00;;;;;;;;;;5016581;28;20052;-25
2022/05/22 02:11:14;;;;;;;10.82;7.00;;;;;;;;;;5016760;28;20412;-26
2022/05/22 02:13:43;;;;;;;20.85;8.35;;;;;;;;;;5020085;28;20515;-26
2022/05/22 02:16:09;;;;;;;16.40;8.48;;;;;;;;;;5015543;28;20104;-26
2022/05/22 02:18:35;;;;;;;18.17;10.25;;;;;;;;;;5025867;28;20052;-26
2022/05/22 02:21:01;;;;;;;16.83;9.57;;;;;;;;;;5030768;28;20067;-26
2022/05/22 02:23:27;;;;;;;25.13;12.90;;;;;;;;;;5016880;28;20048;-26
2022/05/22 02:25:55;;;;;;;23.02;13.13;;;;;;;;;;5017470;28;20076;-25
2022/05/22 02:28:25;;;;;;;31.40;14.77;;;;;;;;;;5017157;28;20049;-26
2022/05/22 02:30:53;;;;;;;35.53;17.25;;;;;;;;;;5015854;28;20136;-26
2022/05/22 02:33:19;;;;;;;46.67;16.92;;;;;;;;;;5016041;28;20049;-25
2022/05/22 02:35:45;;;;;;;105.82;17.08;;;;;;;;;;5015645;28;20505;-25
2022/05/22 02:38:11;;;;;;;31.27;12.00;;;;;;;;;;5016436;28;20172;-26
2022/05/22 02:40:38;;;;;;;32.20;14.15;;;;;;;;;;5014599;28;20116;-25
2022/05/22 02:43:05;;;;;;;60.28;16.23;;;;;;;;;;5016101;28;20111;-26
2022/05/22 02:45:35;;;;;;;51.90;12.82;;;;;;;;;;5015584;28;20523;-26
2022/05/22 02:48:01;;;;;;;34.20;12.93;;;;;;;;;;5015374;28;20042;-26
2022/05/22 02:50:29;;;;;;;75.90;13.82;;;;;;;;;;5015600;28;20100;-25
2022/05/22 02:52:55;;;;;;;53.03;13.00;;;;;;;;;;5015817;28;20493;-25
2022/05/22 02:55:22;;;;;;;65.95;15.77;;;;;;;;;;5014816;28;20528;-25
2022/05/22 02:57:48;;;;;;;26.42;12.02;;;;;;;;;;5015196;28;20056;-25
2022/05/22 03:00:17;;;;;;;30.83;13.00;;;;;;;;;;5016700;28;20075;-26
2022/05/22 03:02:43;;;;;;;43.25;13.35;;;;;;;;;;5016042;28;20052;-26
2022/05/22 03:05:09;;;;;;;26.17;12.48;;;;;;;;;;5015650;28;20073;-25
2022/05/22 03:07:38;;;;;;;28.80;14.13;;;;;;;;;;5015653;28;20042;-26
2022/05/22 03:10:09;;;;;;;33.40;13.65;;;;;;;;;;5028046;28;20080;-26
2022/05/22 03:12:36;;;;;;;38.85;14.52;;;;;;;;;;5017737;28;20050;-25
2022/05/22 03:15:04;;;;;;;65.18;15.95;;;;;;;;;;5014035;28;20038;-25
2022/05/22 03:17:31;;;;;;;85.60;17.08;;;;;;;;;;5014690;28;20474;-26
2022/05/22 03:19:57;;;;;;;103.22;17.52;;;;;;;;;;5014836;28;20409;-25
2022/05/22 03:22:23;;;;;;;192.65;22.90;;;;;;;;;;5014254;28;20052;-25
2022/05/22 03:24:49;;;;;;;218.13;20.55;;;;;;;;;;5013851;28;20140;-25
2022/05/22 03:27:17;;;;;;;179.32;19.33;;;;;;;;;;5013424;28;20169;-25
2022/05/22 03:29:46;;;;;;;214.38;16.90;;;;;;;;;;5013963;28;20057;-25
2022/05/22 03:32:12;;;;;;;171.68;16.75;;;;;;;;;;5015918;28;20394;-25
2022/05/22 03:34:39;;;;;;;160.25;18.10;;;;;;;;;;5014408;28;20042;-25
2022/05/22 03:37:05;;;;;;;65.68;11.45;;;;;;;;;;5015466;28;20092;-25
2022/05/22 03:39:34;;;;;;;90.05;14.57;;;;;;;;;;5015388;28;20049;-25
2022/05/22 03:42:00;;;;;;;57.28;12.18;;;;;;;;;;5015972;28;20049;-25
2022/05/22 03:44:26;;;;;;;73.53;14.80;;;;;;;;;;5020905;28;20583;-25
2022/05/22 03:46:53;;;;;;;79.13;15.10;;;;;;;;;;5014223;28;20204;-25
2022/05/22 03:49:19;;;;;;;40.67;14.02;;;;;;;;;;5018586;28;20472;-25
2022/05/22 03:51:45;;;;;;;58.10;14.85;;;;;;;;;;5032517;28;20440;-25
2022/05/22 03:54:11;;;;;;;31.02;13.40;;;;;;;;;;5028967;28;20406;-25
2022/05/22 03:56:39;;;;;;;32.58;14.55;;;;;;;;;;5015023;28;20124;-25
2022/05/22 03:59:05;;;;;;;25.48;12.68;;;;;;;;;;5019271;28;20041;-25
2022/05/22 04:01:31;;;;;;;31.05;14.45;;;;;;;;;;5018609;28;20046;-25
2022/05/22 04:03:57;;;;;;;60.38;15.00;;;;;;;;;;5015542;28;20497;-25
2022/05/22 04:06:23;;;;;;;26.67;13.13;;;;;;;;;;5015586;28;20049;-25
2022/05/22 04:08:49;;;;;;;84.10;11.93;;;;;;;;;;5014459;28;20045;-25
2022/05/22 04:11:17;;;;;;;28.88;11.27;;;;;;;;;;5015820;28;20132;-25
2022/05/22 04:13:43;;;;;;;29.15;12.38;;;;;;;;;;5019353;28;20038;-25
2022/05/22 04:16:09;;;;;;;16.23;10.35;;;;;;;;;;5013431;28;20495;-25
2022/05/22 04:18:36;;;;;;;21.25;10.65;;;;;;;;;;5014682;28;20347;-25
2022/05/22 04:21:02;;;;;;;24.98;13.30;;;;;;;;;;5013784;28;20052;-25
2022/05/22 04:26:13;;;;;;;40.92;15.48;;;;;;;;;;5013848;28;20405;-25
2022/05/22 04:28:40;;;;;;;35.08;15.93;;;;;;;;;;5014614;28;20041;-25
2022/05/22 04:31:09;;;;;;;37.97;16.27;;;;;;;;;;5012844;28;20069;-25
2022/05/22 04:33:35;;;;;;;30.92;14.40;;;;;;;;;;5013357;28;20046;-25
2022/05/22 04:36:01;;;;;;;33.55;16.73;;;;;;;;;;5014226;28;20405;-25
2022/05/22 04:38:27;;;;;;;25.52;13.73;;;;;;;;;;5013001;28;20048;-25
2022/05/22 04:40:57;;;;;;;41.65;16.30;;;;;;;;;;5027837;28;20045;-25
2022/05/22 04:43:24;;;;;;;29.67;14.77;;;;;;;;;;5034636;28;20054;-25
2022/05/22 04:45:50;;;;;;;35.05;13.98;;;;;;;;;;5019662;28;20042;-25
2022/05/22 04:48:17;;;;;;;40.22;17.38;;;;;;;;;;5013702;28;20177;-25
2022/05/22 04:50:49;;;;;;;35.10;15.95;;;;;;;;;;5013445;28;20498;-25
2022/05/22 04:53:16;;;;;;;45.00;16.20;;;;;;;;;;5013559;28;20073;-25
2022/05/22 04:55:42;;;;;;;31.38;14.20;;;;;;;;;;5013973;28;20100;-25
2022/05/22 04:58:08;;;;;;;24.65;13.20;;;;;;;;;;5013210;28;20132;-25
2022/05/22 05:00:34;;;;;;;26.95;14.10;;;;;;;;;;5014546;28;20041;-25
2022/05/22 05:03:00;;;;;;;35.00;13.88;;;;;;;;;;5014166;28;20092;-25
2022/05/22 05:05:28;;;;;;;38.00;13.93;;;;;;;;;;5013521;28;20084;-25
2022/05/22 05:07:54;;;;;;;28.58;13.93;;;;;;;;;;5013937;28;20145;-25
2022/05/22 05:10:20;;;;;;;25.73;14.02;;;;;;;;;;5014031;28;20188;-25
2022/05/22 05:12:47;;;;;;;28.40;13.43;;;;;;;;;;5013822;28;20049;-26
2022/05/22 05:15:16;;;;;;;24.95;12.25;;;8.70;99.90;;;;;;5016285;28;20061;-26
2022/05/22 05:17:43;;;;;;;31.95;13.57;;;8.90;99.90;;;;;;5016497;28;20046;-26
2022/05/22 05:20:13;;;;;;;28.98;12.90;;;9.30;99.90;;;;;;5012590;28;20065;-26
2022/05/22 05:22:39;;;;;;;28.50;13.90;;;10.10;99.90;;;;;;5013379;28;20121;-26
2022/05/22 05:25:05;;;;;;;29.35;13.48;;;11.00;99.90;;;;;;5013813;28;20121;-26
2022/05/22 05:27:32;;;;;;;29.13;13.93;;;11.70;99.90;;;;;;5014134;28;20402;-26
2022/05/22 05:29:57;;;;;;;20.67;12.52;;;12.30;99.90;;;;;;5013603;28;20085;-26
2022/05/22 05:32:23;;;;;;;24.40;11.50;;;13.00;99.90;;;;;;5012934;28;20147;-26
2022/05/22 05:35:00;;;;;;;21.73;11.98;;;13.50;99.90;;;;;;5013296;28;20397;-25
2022/05/22 05:37:26;;;;;;;22.35;11.15;;;14.00;99.90;;;;;;5022022;28;20128;-26
2022/05/22 05:39:53;;;;;;;24.52;10.48;;;14.40;1.00;;;;;;5022922;28;20044;-25
2022/05/22 05:42:19;;;;;;;19.02;10.50;;;14.60;99.90;;;;;;5016894;28;20128;-26
2022/05/22 05:44:46;;;;;;;22.25;10.02;;;15.20;99.90;;;;;;5037153;28;20489;-25
2022/05/22 05:47:11;;;;;;;22.17;10.30;;;15.50;1.00;;;;;;5027594;28;20175;-25
2022/05/22 05:49:38;;;;;;;24.27;10.20;;;15.70;1.00;;;;;;5037375;28;20475;-25
2022/05/22 05:52:09;;;;;;;28.20;9.82;;;15.90;99.90;;;;;;5018457;28;20042;-25
2022/05/22 05:54:34;;;;;;;22.67;9.70;;;16.10;99.90;;;;;;5015305;28;20481;-25
2022/05/22 05:57:00;;;;;;;23.85;9.75;;;16.30;41.80;;;;;;5017004;28;20057;-25
2022/05/22 05:59:27;;;;;;;28.35;11.15;;;16.30;1.00;;;;;;5017829;28;20510;-25
2022/05/22 06:01:53;;;;;;;26.20;10.45;;;16.10;1.00;;;;;;5016859;28;20381;-25
2022/05/22 06:04:20;;;;;;;27.85;10.27;;;16.20;1.00;;;;;;5016350;28;20053;-25
2022/05/22 06:06:46;;;;;;;25.90;11.60;;;16.20;1.00;;;;;;5015259;28;20042;-25
2022/05/22 06:09:12;;;;;;;19.08;7.35;;;16.30;1.00;;;;;;5016521;28;20053;-25
2022/05/22 06:11:38;;;;;;;22.77;9.20;;;16.30;99.90;;;;;;5020133;28;20068;-25
2022/05/22 06:14:03;;;;;;;17.40;8.35;;;16.30;99.90;;;;;;5036855;28;20079;-25
2022/05/22 06:16:29;;;;;;;22.05;8.13;;;16.30;99.90;;;;;;5030549;28;20045;-25
2022/05/22 06:18:55;;;;;;;23.77;9.40;;;16.40;99.90;;;;;;5016474;28;20046;-25
2022/05/22 06:21:22;;;;;;;23.85;8.23;;;16.70;99.90;;;;;;5015894;28;20049;-25
2022/05/22 06:23:48;;;;;;;19.08;7.80;;;16.90;99.90;;;;;;5016333;28;20509;-25
2022/05/22 06:26:19;;;;;;;19.80;7.00;;;16.80;99.90;;;;;;5016379;28;20100;-25
2022/05/22 06:28:45;;;;;;;19.67;8.25;;;16.90;99.90;;;;;;5016611;28;20041;-25
2022/05/22 06:31:12;;;;;;;23.08;7.97;;;16.90;99.90;;;;;;5014265;28;20513;-25
2022/05/22 06:33:39;;;;;;;17.90;7.03;;;17.10;99.90;;;;;;5016832;28;20485;-25
2022/05/22 06:36:09;;;;;;;17.95;6.82;;;17.00;99.90;;;;;;5016765;28;20046;-25
2022/05/22 06:41:19;;;;;;;16.70;5.97;;;17.10;99.90;;;;;;5024797;28;20049;-26
2022/05/22 06:43:46;;;;;;;16.92;6.50;;;17.20;99.90;;;;;;5021333;28;20048;-25
2022/05/22 06:46:12;;;;;;;11.98;5.28;;;17.30;99.90;;;;;;5036216;28;20041;-25
2022/05/22 06:48:37;;;;;;;15.68;5.88;;;17.50;99.90;;;;;;5018486;28;20053;-25
2022/05/22 06:51:03;;;;;;;13.07;5.72;;;17.60;28.00;;;;;;5023628;28;20052;-25
2022/05/22 06:53:29;;;;;;;17.02;5.93;;;17.60;1.00;;;;;;5015735;28;20049;-25
2022/05/22 06:55:55;;;;;;;16.33;6.70;;;17.80;1.00;;;;;;5016300;28;20048;-25
2022/05/22 06:58:21;;;;;;;14.77;5.55;;;17.90;1.00;;;;;;5016496;28;20049;-25
2022/05/22 07:00:53;;;;;;;14.27;5.85;;;18.10;1.00;;;;;;5015292;28;20049;-25
2022/05/22 07:03:19;;;;;;;16.63;5.65;;;18.30;1.00;;;;;;5016236;28;20133;-25
2022/05/22 07:05:45;;;;;;;14.75;5.75;;;18.30;1.00;;;;;;5016070;28;20125;-25
2022/05/22 07:08:11;;;;;;;11.57;4.07;;;18.40;1.00;;;;;;5016842;28;20052;-25
2022/05/22 07:13:20;;;;;;;13.43;4.53;;;18.50;1.00;;;;;;5016690;28;20046;-25
2022/05/22 07:16:02;;;;;;;15.85;4.82;;;18.50;1.00;;;;;;5016272;28;20382;-25
2022/05/22 07:18:28;;;;;;;12.65;4.38;;;18.20;99.90;;;;;;5015294;28;20085;-25
2022/05/22 07:20:53;;;;;;;15.00;5.38;;;18.30;1.00;;;;;;5014292;28;20092;-25
2022/05/22 07:23:21;;;;;;;11.20;3.65;;;18.60;1.00;;;;;;5015788;28;20049;-25
2022/05/22 07:25:48;;;;;;;18.13;5.35;;;18.90;99.90;;;;;;5015752;28;20073;-25
2022/05/22 07:28:13;;;;;;;11.13;4.10;;;19.20;99.90;;;;;;5015695;28;20128;-25
2022/05/22 07:30:39;;;;;;;15.15;4.10;;;19.10;99.90;;;;;;5015663;28;20558;-25
2022/05/22 07:33:08;;;;;;;15.00;4.05;;;19.00;99.90;;;;;;5030125;28;20116;-26
2022/05/22 07:35:34;;;;;;;9.75;4.57;;;18.90;99.90;;;;;;5023653;28;20526;-25
2022/05/22 07:38:01;;;;;;;11.85;3.88;;;18.70;99.90;;;;;;5034313;28;20087;-25
2022/05/22 07:40:30;;;;;;;9.70;3.65;;;18.80;99.90;;;;;;5022733;28;20054;-25
2022/05/22 07:42:56;;;;;;;11.35;3.05;;;18.70;99.90;;;;;;5021367;28;20099;-28
2022/05/22 07:45:24;;;;;;;15.50;3.20;;;18.70;99.90;;;;;;5014275;28;20105;-25
2022/05/22 07:47:53;;;;;;;11.60;3.72;;;18.70;99.90;;;;;;5015429;28;20057;-25
2022/05/22 07:50:20;;;;;;;9.73;2.50;;;19.00;99.90;;;;;;5014457;28;20125;-25
2022/05/22 07:52:48;;;;;;;11.98;2.60;;;19.00;99.90;;;;;;5015381;28;20133;-25
2022/05/22 07:55:14;;;;;;;9.65;3.30;;;19.00;99.90;;;;;;5017694;28;20108;-25
2022/05/22 07:57:46;;;;;;;9.80;2.40;;;18.70;99.90;;;;;;5035037;28;20417;-25
2022/05/22 08:00:14;;;;;;;10.00;2.50;;;19.10;99.90;;;;;;5033068;28;20056;-25
2022/05/22 08:02:40;;;;;;;9.40;2.22;;;19.30;99.90;;;;;;5034910;28;20057;-25
2022/05/22 08:05:08;;;;;;;5.18;1.40;;;19.20;67.10;;;;;;5014952;28;20451;-25
2022/05/22 08:07:35;;;;;;;6.45;1.75;;;19.20;38.90;;;;;;5014241;28;20414;-25
2022/05/22 08:10:01;;;;;;;10.13;1.80;;;19.60;17.20;;;;;;5014987;28;20401;-25
2022/05/22 08:12:27;;;;;;;5.47;1.38;;;19.80;75.60;;;;;;5015210;28;20045;-25
2022/05/22 08:14:53;;;;;;;9.32;1.98;;;20.00;18.80;;;;;;5013659;28;20069;-25
2022/05/22 08:17:21;;;;;;;13.88;2.25;;;20.20;83.90;;;;;;5028228;28;20081;-25
2022/05/22 08:19:48;;;;;;;7.20;2.40;;;20.00;42.00;;;;;;5034854;28;20053;-25
2022/05/22 08:22:15;;;;;;;7.75;1.77;;;20.30;23.10;;;;;;5033367;28;20442;-25
2022/05/22 08:24:41;;;;;;;8.02;2.17;;;20.10;1.00;;;;;;5034479;28;20478;-25
2022/05/22 08:27:07;;;;;;;7.30;1.75;;;20.10;1.00;;;;;;5024897;28;20042;-26
2022/05/22 08:29:33;;;;;;;10.95;2.72;;;20.20;1.00;;;;;;5014673;28;20053;-26
2022/05/22 08:31:59;;;;;;;8.23;2.08;;;20.00;1.00;;;;;;5014450;28;20061;-25
2022/05/22 08:34:24;;;;;;;7.80;1.88;;;20.00;1.00;;;;;;5014803;28;20140;-26
2022/05/22 08:36:51;;;;;;;6.95;1.50;;;20.50;1.00;;;;;;5014741;28;20041;-26
2022/05/22 08:39:18;;;;;;;7.82;2.00;;;20.70;1.00;;;;;;4997989;28;20470;-26
2022/05/22 08:41:48;;;;;;;6.85;2.10;;;20.90;1.00;;;;;;5014462;28;20057;-26
2022/05/22 08:44:21;;;;;;;8.23;2.38;;;20.40;1.00;;;;;;5026306;28;20095;-26
2022/05/22 08:47:01;;;;;;;7.45;2.15;;;20.40;1.00;;;;;;5019545;28;20112;-26
2022/05/22 08:49:51;;;;;;;9.45;1.80;;;20.30;1.00;;;;;;5016761;28;20089;-26
2022/05/22 08:52:41;;;;;;;6.65;1.73;;;20.50;99.90;;;;;;5035013;28;20128;-26
2022/05/22 08:55:15;;;;;;;6.05;1.38;;;20.50;99.90;;;;;;5020650;28;20049;-26
2022/05/22 09:00:55;;;;;;;11.20;2.85;;;21.00;1.00;;;;;;5019297;28;20049;-26
2022/05/22 09:03:27;;;;;;;6.60;1.38;;;21.00;1.00;;;;;;5017392;28;20045;-26
2022/05/22 09:05:58;;;;;;;7.28;1.73;;;20.10;1.00;;;;;;5015116;28;20088;-26
2022/05/22 09:08:37;;;;;;;11.63;2.25;;;19.90;1.00;;;;;;5014399;28;20084;-26
2022/05/22 09:11:31;;;;;;;10.23;1.85;;;20.00;1.00;;;;;;5014066;28;20085;-26
2022/05/22 09:14:11;;;;;;;7.85;2.20;;;20.40;1.00;;;;;;5013168;28;20042;-26
2022/05/22 09:16:50;;;;;;;6.40;2.03;;;20.20;1.00;;;;;;5031707;28;20528;-25
2022/05/22 09:19:33;;;;;;;7.43;2.10;;;20.10;1.00;;;;;;5033653;28;20498;-26
2022/05/22 09:22:21;;;;;;;9.27;2.72;;;20.40;1.00;;;;;;5034192;28;20143;-26
2022/05/22 09:24:53;;;;;;;9.65;2.60;;;20.80;1.00;;;;;;5030555;28;20049;-26
2022/05/22 09:27:31;;;;;;;7.82;2.25;;;21.20;1.00;;;;;;5027388;28;20049;-26
2022/05/22 09:29:59;;;;;;;10.65;2.95;;;21.50;1.00;;;;;;5033262;28;20061;-26
2022/05/22 09:32:37;;;;;;;7.32;2.53;;;21.50;1.00;;;;;;5034091;28;20054;-26
2022/05/22 09:35:37;;;;;;;8.20;2.75;;;21.00;1.00;;;;;;5032943;28;20443;-27
2022/05/22 09:38:36;;;;;;;12.00;3.35;;;21.40;1.00;;;;;;5013378;28;20061;-26
2022/05/22 09:41:16;;;;;;;9.65;2.85;;;21.50;99.90;;;;;;5014336;28;20375;-26
2022/05/22 09:43:50;;;;;;;7.88;2.28;;;;;;;;;;5013741;28;20042;-26
2022/05/22 09:46:20;;;;;;;6.70;2.40;;;;;;;;;;5013296;28;20053;-26
2022/05/22 09:49:05;;;;;;;8.15;2.10;;;;;;;;;;5013755;28;20053;-26
2022/05/22 09:51:42;;;;;;;8.18;2.05;;;;;;;;;;5013527;28;20092;-26
2022/05/22 09:54:12;;;;;;;11.05;2.35;;;;;;;;;;5045424;28;20042;-26
2022/05/22 09:56:48;;;;;;;9.77;2.45;;;;;;;;;;5013526;28;20050;-26
2022/05/22 09:59:38;;;;;;;8.18;2.22;;;;;;;;;;5013534;28;20064;-26
2022/05/22 10:02:13;;;;;;;9.45;2.42;;;;;;;;;;5029303;28;20505;-26
2022/05/22 10:04:51;;;;;;;5.30;2.20;;;;;;;;;;5013528;28;20042;-27
2022/05/22 10:07:34;;;;;;;6.13;1.75;;;;;;;;;;5013088;28;20518;-26
2022/05/22 10:10:01;;;;;;;8.43;2.10;;;;;;;;;;5013970;28;20049;-26
2022/05/22 10:12:28;;;;;;;9.80;2.05;;;;;;;;;;5013517;28;20458;-26
2022/05/22 10:15:01;;;;;;;6.93;2.40;;;;;;;;;;5013754;28;20089;-26
2022/05/22 10:17:38;;;;;;;6.93;2.20;;;;;;;;;;5013871;28;20481;-26
2022/05/22 10:20:21;;;;;;;6.97;1.95;;;;;;;;;;4996582;28;20045;-27
2022/05/22 10:22:56;;;;;;;6.85;2.55;;;;;;;;;;5012675;28;20045;-26
2022/05/22 10:25:26;;;;;;;8.07;2.58;;;;;;;;;;5016519;28;20128;-26
2022/05/22 10:27:55;;;;;;;6.45;1.92;;;;;;;;;;5016156;28;20045;-26
2022/05/22 10:30:38;;;;;;;7.43;2.15;;;;;;;;;;5016928;28;20073;-26
2022/05/22 10:33:09;;;;;;;9.10;2.03;;;;;;;;;;5017665;28;20061;-26
2022/05/22 10:35:42;;;;;;;6.75;1.67;;;;;;;;;;5016638;28;20520;-26
2022/05/22 10:38:15;;;;;;;8.15;2.22;;;;;;;;;;5017285;28;20060;-26
2022/05/22 10:43:37;;;;;;;7.05;2.17;;;;;;;;;;5016968;28;20386;-26
2022/05/22 10:46:05;;;;;;;9.50;2.50;;;;;;;;;;5016683;28;20054;-26
2022/05/22 10:48:34;;;;;;;5.78;2.00;;;;;;;;;;5016506;28;20132;-26
2022/05/22 10:51:13;;;;;;;6.88;1.55;;;;;;;;;;5015340;28;20100;-27
2022/05/22 10:53:40;;;;;;;7.40;1.90;;;;;;;;;;5033753;28;20053;-27
2022/05/22 10:56:07;;;;;;;7.25;1.83;;;;;;;;;;5036143;28;20575;-26
2022/05/22 10:58:35;;;;;;;8.35;2.05;;;;;;;;;;5036060;28;20108;-26
2022/05/22 11:01:04;;;;;;;8.40;2.63;;;;;;;;;;5035992;28;20052;-26
2022/05/22 11:03:33;;;;;;;5.43;1.63;;;;;;;;;;5022755;28;20124;-26
2022/05/22 11:06:01;;;;;;;6.53;1.88;;;;;;;;;;5016152;28;20576;-26
2022/05/22 11:08:35;;;;;;;4.75;1.58;;;;;;;;;;5016427;28;20052;-26
2022/05/22 11:11:12;;;;;;;6.03;1.42;;;;;;;;;;5016186;28;20129;-27
2022/05/22 11:13:40;;;;;;;4.35;1.83;;;;;;;;;;5017587;28;20081;-26
2022/05/22 11:16:14;;;;;;;6.57;1.77;;;;;;;;;;5035691;28;20085;-27
2022/05/22 11:18:42;;;;;;;4.97;1.45;;;;;;;;;;5035729;28;20057;-27
2022/05/22 11:21:12;;;;;;;10.65;1.92;;;;;;;;;;5036266;28;20080;-27
2022/05/22 11:23:39;;;;;;;7.47;1.55;;;;;;;;;;5031700;28;20049;-26
2022/05/22 11:26:25;;;;;;;6.65;2.13;;;;;;;;;;5014491;28;20042;-27
2022/05/22 11:29:11;;;;;;;6.38;1.95;;;;;;;;;;5015645;28;20050;-27
2022/05/22 11:31:41;;;;;;;4.63;1.40;;;;;;;;;;5015242;28;20145;-27
2022/05/22 11:34:27;;;;;;;4.20;1.20;;;;;;;;;;5015895;28;20133;-26
2022/05/22 11:37:00;;;;;;;5.22;1.48;;;;;;;;;;5028745;28;20497;-27
2022/05/22 11:39:42;;;;;;;8.20;2.00;;;;;;;;;;5035598;28;20385;-27
2022/05/22 11:42:28;;;;;;;3.63;1.13;;;;;;;;;;5035243;28;20107;-27
2022/05/22 11:45:13;;;;;;;5.18;1.48;;;;;;;;;;5035213;28;20045;-27
2022/05/22 11:47:46;;;;;;;7.75;1.60;;;;;;;;;;5024992;28;20517;-26
2022/05/22 11:50:24;;;;;;;6.35;1.30;;;;;;;;;;5035113;28;20056;-26
2022/05/22 11:53:20;;;;;;;6.90;1.88;;;;;;;;;;5035609;28;20428;-26
2022/05/22 11:56:00;;;;;;;5.70;1.60;;;;;;;;;;5034340;28;20058;-26
2022/05/22 11:58:33;;;;;;;5.47;1.10;;;;;;;;;;5033494;28;20064;-26
2022/05/22 12:01:13;;;;;;;6.35;1.30;;;;;;;;;;5034801;28;20056;-26
2022/05/22 12:03:47;;;;;;;7.80;2.00;;;;;;;;;;5034768;28;20052;-26
2022/05/22 12:06:23;;;;;;;5.05;1.30;;;;;;;;;;5035373;28;20373;-27
2022/05/22 12:09:11;;;;;;;4.95;1.70;;;;;;;;;;5032354;28;20099;-26
2022/05/22 12:12:00;;;;;;;7.57;1.60;;;;;;;;;;5030220;28;20580;-26
2022/05/22 12:14:27;;;;;;;8.15;2.05;;;;;;;;;;5035217;28;20045;-26
2022/05/22 12:17:00;;;;;;;5.15;1.58;;;;;;;;;;5033484;28;20050;-26
2022/05/22 12:19:36;;;;;;;5.55;1.50;;;;;;;;;;5014818;28;20107;-26
2022/05/22 12:22:13;;;;;;;6.57;1.63;;;;;;;;;;5014867;28;20497;-26
2022/05/22 12:25:00;;;;;;;5.88;1.45;;;;;;;;;;5015104;28;20121;-27
2022/05/22 12:27:29;;;;;;;5.90;1.65;;;;;;;;;;5014518;28;20045;-27
2022/05/22 12:30:07;;;;;;;5.97;1.48;;;;;;;;;;5015036;28;20081;-26
2022/05/22 12:32:46;;;;;;;4.00;1.30;;;;;;;;;;5015005;28;20092;-26
2022/05/22 12:35:15;;;;;;;5.63;1.05;;;;;;;;;;5014818;28;20441;-26
2022/05/22 12:37:44;;;;;;;5.88;1.40;;;;;;;;;;5015323;28;20041;-27
2022/05/22 12:40:15;;;;;;;7.90;2.10;;;;;;;;;;5032520;28;20456;-26
2022/05/22 12:42:46;;;;;;;3.40;1.00;;;;;;;;;;5033347;28;20095;-26
2022/05/22 12:45:13;;;;;;;5.60;1.50;;;;;;;;;;5034145;28;20045;-26
2022/05/22 12:47:49;;;;;;;4.32;1.02;;;;;;;;;;5033547;28;20588;-26
2022/05/22 12:50:34;;;;;;;4.22;1.55;;;;;;;;;;5024863;28;20112;-26
2022/05/22 12:53:03;;;;;;;3.92;1.10;;;;;;;;;;5033937;28;20045;-26
2022/05/22 12:55:35;;;;;;;4.25;1.10;;;;;;;;;;5032631;28;20127;-26
2022/05/22 12:58:04;;;;;;;4.57;1.10;;;;;;;;;;5033887;28;20497;-26
2022/05/22 13:00:35;;;;;;;5.45;1.60;;;;;;;;;;5020601;28;20053;-27
2022/05/22 13:03:21;;;;;;;11.75;1.75;;;;;;;;;;4996303;28;20093;-26
2022/05/22 13:05:57;;;;;;;6.50;1.40;;;;;;;;;;5014183;28;20045;-26
2022/05/22 13:08:42;;;;;;;7.63;1.42;;;;;;;;;;4997635;28;20100;-27
2022/05/22 13:11:16;;;;;;;7.40;1.02;;;;;;;;;;5018420;28;20397;-26
2022/05/22 13:13:52;;;;;;;6.75;1.30;;;;;;;;;;5033718;28;20084;-26
2022/05/22 13:16:25;;;;;;;4.47;1.40;;;;;;;;;;5033634;28;20124;-26
2022/05/22 13:18:51;;;;;;;5.53;1.55;;;;;;;;;;5033299;28;20041;-27
2022/05/22 13:21:35;;;;;;;7.05;1.90;;;;;;;;;;5031097;28;20048;-27
2022/05/22 13:24:03;;;;;;;3.67;1.38;;;;;;;;;;5032689;28;20084;-27
2022/05/22 13:26:30;;;;;;;6.57;1.33;;;;;;;;;;5033611;28;20412;-26
2022/05/22 13:29:19;;;;;;;4.63;1.15;;;;;;;;;;5033854;28;20473;-26
2022/05/22 13:31:46;;;;;;;5.82;1.48;;;;;;;;;;5023765;28;20076;-26
2022/05/22 13:34:15;;;;;;;4.78;1.10;;;;;;;;;;5013770;28;20133;-27
2022/05/22 13:36:56;;;;;;;3.78;1.45;;;;;;;;;;5013386;28;20393;-26
2022/05/22 13:39:31;;;;;;;3.15;0.80;;;;;;;;;;5014354;28;20088;-26
2022/05/22 13:41:57;;;;;;;4.22;1.23;;;;;;;;;;5014212;28;20073;-27
2022/05/22 13:44:38;;;;;;;5.20;1.42;;;;;;;;;;5029786;28;20120;-26
2022/05/22 13:47:07;;;;;;;6.25;1.60;;;;;;;;;;5032788;28;20076;-26
2022/05/22 13:49:44;;;;;;;4.95;1.20;;;;;;;;;;5033437;28;20049;-26
2022/05/22 13:52:35;;;;;;;5.97;1.40;;;;;;;;;;5029434;28;20042;-27
2022/05/22 13:55:14;;;;;;;3.25;1.00;;;;;;;;;;5012601;28;20180;-26
2022/05/22 13:57:50;;;;;;;5.20;1.70;;;;;;;;;;5012623;28;20050;-27
2022/05/22 14:00:20;;;;;;;5.60;1.10;;;;;;;;;;5017459;28;20089;-27
2022/05/22 14:02:55;;;;;;;6.85;1.65;;;;;;;;;;5017555;28;20489;-27
2022/05/22 14:05:21;;;;;;;5.03;1.10;;;;;;;;;;5017798;28;20042;-26
2022/05/22 14:07:53;;;;;;;3.45;1.10;;;;;;;;;;5017565;28;20093;-27
2022/05/22 14:10:33;;;;;;;6.15;1.20;;;;;;;;;;5017697;28;20077;-26
2022/05/22 14:13:09;;;;;;;4.88;1.00;;;;;;;;;;5017023;28;20049;-26
2022/05/22 14:15:35;;;;;;;4.50;1.02;;;;;;;;;;5024132;28;20042;-27
2022/05/22 14:18:11;;;;;;;5.97;1.35;;;;;;;;;;5036907;28;20054;-26
2022/05/22 14:20:41;;;;;;;5.57;1.20;;;;;;;;;;5019261;28;20048;-27
2022/05/22 14:23:18;;;;;;;4.90;1.30;;;;;;;;;;5036836;28;20046;-27
2022/05/22 14:25:46;;;;;;;7.28;1.40;;;;;;;;;;5016956;28;20085;-26